Latest Coastal Weather Observations for Troughton Island

IDD60701

Issued at 4:41 pm CST Tuesday 7 July 2015 (issued every 10 minutes, with the page automatically refreshed every 10 minutes)

About coastal observations | Map of coastal stations | Coastal observations for NT | Marine services | Other Formats
Station Details ID: 001007 Name: TROUGHTON ISLAND Lat: -13.75 Lon: 126.15 Height: 6.0 m
Data from the previous 72 hours. | See also: Recent months at Troughton Island
Date/Time
CST
Temp

°C
Wind Pressure Rain
since 9am
mm
Weather Cloud Vis
km
Sea
Height
m
Swell
Dir
 
Speed
knots
Gust
knots
hPa Trend Height
m
Period
s
Dir
07/04:30pm 25.9 NNE 12 14 1011.3 - 0.0 - - - - - - -
07/04:02pm 25.7 NNE 14 17 1011.6 - 0.0 - - - - - - -
07/03:32pm 25.6 NNE 16 19 1011.8 - 0.0 - - - - - - -
07/02:32pm 27.3 ENE 8 9 1012.0 - 0.0 - - - - - - -
07/02:02pm 27.4 E 7 8 1012.1 - 0.0 - - - - - - -
07/01:32pm 28.3 E 6 7 1012.6 - 0.0 - - - - - - -
07/01:02pm 28.0 ESE 6 8 1013.0 - 0.0 - - - - - - -
07/12:32pm 28.3 ESE 6 7 1013.3 - 0.0 - - - - - - -
07/12:02pm 28.6 ESE 6 8 1013.5 - 0.0 - - - - - - -
07/11:32am 27.6 SSE 7 8 1013.8 - 0.0 - - - - - - -
07/11:02am 27.9 SSE 7 9 1014.0 - 0.0 - - - - - - -
07/10:32am 26.7 SSE 7 9 1014.2 - 0.0 - - - - - - -
07/10:30am 26.9 SSE 7 - 1014.2 - 0.0 - - - - - - -
07/10:02am 26.9 SSE 7 8 1014.5 - 0.0 - - - - - - -
07/09:32am 26.5 S 6 7 1014.3 - 0.0 - - - - - - -
07/09:02am 25.7 S 5 6 1013.8 - 0.0 - - - - - - -
07/08:32am 25.7 S 5 6 1013.6 - 0.0 - - - - - - -
07/08:02am 25.0 S 5 6 1013.4 - 0.0 - - - - - - -
07/07:32am 24.6 S 5 7 1013.0 - 0.0 - - - - - - -
07/07:30am 24.6 S 6 - 1012.9 - - - - - - - - -
07/07:02am 24.9 SSE 6 7 1012.9 - 0.0 - - - - - - -
07/06:32am 24.8 S 7 8 1012.7 - 0.0 - - - - - - -
07/06:02am 24.8 S 6 8 1012.5 - 0.0 - - - - - - -
07/05:32am 24.6 S 7 9 1012.3 - 0.0 - - - - - - -
07/05:02am 24.4 SSE 7 8 1012.1 - 0.0 - - - - - - -
07/04:32am 24.8 SE 9 10 1012.0 - 0.0 - - - - - - -
07/04:30am 24.8 SE 9 - 1011.9 - 0.0 - - - - - - -
07/04:02am 24.9 SE 8 9 1012.0 - 0.0 - - - - - - -
07/03:32am 25.1 ESE 8 9 1012.1 - 0.0 - - - - - - -
07/03:02am 25.0 ESE 8 9 1012.3 - 0.0 - - - - - - -
07/02:32am 24.7 SE 6 7 1012.3 - 0.0 - - - - - - -
07/02:02am 24.8 SE 7 8 1012.6 - 0.0 - - - - - - -
07/01:32am 24.8 ESE 7 7 1012.6 - 0.0 - - - - - - -
07/01:30am 24.8 ESE 7 7 1012.5 - - - - - - - - -
07/01:02am 24.7 ESE 9 11 1012.6 - 0.0 - - - - - - -
07/12:32am 24.7 ESE 9 11 1012.9 - 0.0 - - - - - - -
07/12:02am 24.8 E 9 11 1013.3 - 0.0 - - - - - - -
 
Date/Time
CST
Temp

°C
Wind Pressure Rain
since 9am
mm
Weather Cloud Vis
km
Sea
Height
m
Swell
Dir
 
Speed
knots
Gust
knots
hPa Trend Height
m
Period
s
Dir
06/11:32pm 24.8 E 9 10 1013.4 - 0.0 - - - - - - -
06/11:02pm 24.9 E 10 12 1013.5 - 0.0 - - - - - - -
06/10:32pm 25.0 E 11 13 1013.6 - 0.0 - - - - - - -
06/09:02pm 25.1 E 11 13 1013.5 - 0.0 - - - - - - -
06/08:32pm 25.2 ENE 10 12 1013.2 - 0.0 - - - - - - -
06/08:02pm 25.3 ENE 9 11 1012.9 - 0.0 - - - - - - -
06/07:32pm 25.3 NE 9 11 1012.6 - 0.0 - - - - - - -
06/06:32pm 25.9 NE 8 11 1012.2 - 0.0 - - - - - - -
06/06:02pm 26.5 NE 7 8 1012.0 - 0.0 - - - - - - -
06/05:32pm 26.9 ENE 5 6 1011.8 - 0.0 - - - - - - -
06/05:02pm 27.1 NE 5 6 1011.7 - 0.0 - - - - - - -
06/04:32pm 27.6 E 4 5 1011.8 - 0.0 - - - - - - -
06/04:02pm 28.2 E 5 6 1011.8 - 0.0 - - - - - - -
06/03:32pm 28.6 ESE 6 8 1012.0 - 0.0 - - - - - - -
06/02:32pm 28.7 ESE 10 12 1012.5 - 0.0 - - - - - - -
06/02:02pm 27.7 ESE 8 10 1012.8 - 0.0 - - - - - - -
06/01:30pm 28.0 SE 9 - 1013.2 - - - - - - - - -
06/01:02pm 27.6 SE 10 11 1013.8 - 0.0 - - - - - - -
06/12:32pm 28.6 SSE 11 13 1014.2 - 0.0 - - - - - - -
06/12:02pm 28.0 SSE 12 15 1014.6 - 0.0 - - - - - - -
06/11:32am 27.5 SSE 11 14 1014.9 - 0.0 - - - - - - -
06/11:02am 27.0 SSE 12 14 1015.1 - 0.0 - - - - - - -
06/10:32am 26.6 SSE 12 14 1015.3 - 0.0 - - - - - - -
06/10:30am 26.6 SSE 12 - 1015.3 - 0.0 - - - - - - -
06/10:02am 25.6 SSE 11 13 1015.5 - 0.0 - - - - - - -
06/09:32am 25.6 SSE 9 11 1015.3 - 0.0 - - - - - - -
06/09:02am 24.6 SSE 8 10 1015.2 - 0.0 - - - - - - -
06/08:32am 24.0 SSE 7 8 1014.9 - 0.0 - - - - - - -
06/08:02am 22.9 S 8 9 1014.6 - 0.0 - - - - - - -
06/07:32am 22.2 S 7 8 1014.4 - 0.0 - - - - - - -
06/07:30am 22.0 S 7 - 1014.3 - - - - - - - - -
06/07:02am 21.5 S 7 8 1014.0 - 0.0 - - - - - - -
06/06:32am 21.2 SSE 6 8 1013.5 - 0.0 - - - - - - -
06/06:02am 20.9 SSE 7 8 1013.5 - 0.0 - - - - - - -
06/05:32am 21.7 SE 3 4 1013.1 - 0.0 - - - - - - -
06/05:02am 21.9 SE 7 8 1013.2 - 0.0 - - - - - - -
06/04:32am 21.6 SE 7 8 1013.1 - 0.0 - - - - - - -
06/04:30am 21.6 SE 7 - 1013.0 - 0.0 - - - - - - -
06/04:02am 21.9 SE 8 9 1013.2 - 0.0 - - - - - - -
06/03:32am 22.5 ESE 7 9 1013.2 - 0.0 - - - - - - -
06/03:02am 22.6 ESE 7 9 1013.4 - 0.0 - - - - - - -
06/02:32am 23.1 ESE 7 8 1013.6 - 0.0 - - - - - - -
06/02:02am 23.1 E 6 7 1013.6 - 0.0 - - - - - - -
06/01:32am 23.7 E 7 8 1013.8 - 0.0 - - - - - - -
06/01:30am 23.8 E 7 - 1013.7 - - - - - - - - -
06/01:02am 23.9 E 9 10 1013.9 - 0.0 - - - - - - -
06/12:32am 23.8 E 10 11 1014.0 - 0.0 - - - - - - -
06/12:02am 23.7 E 11 13 1014.1 - 0.0 - - - - - - -
 
Date/Time
CST
Temp

°C
Wind Pressure Rain
since 9am
mm
Weather Cloud Vis
km
Sea
Height
m
Swell
Dir
 
Speed
knots
Gust
knots
hPa Trend Height
m
Period
s
Dir
05/11:32pm 24.0 E 12 14 1014.2 - 0.0 - - - - - - -
05/10:02pm 24.2 E 12 14 1014.5 - 0.0 - - - - - - -
05/09:02pm 24.2 ENE 12 15 1014.1 - 0.0 - - - - - - -
05/08:32pm 24.3 ENE 13 15 1013.9 - 0.0 - - - - - - -
05/07:30pm 24.4 ENE 13 - 1013.4 - - - - - - - - -
05/07:02pm 24.5 NE 12 15 1013.4 - 0.0 - - - - - - -
05/06:32pm 24.9 NE 12 15 1013.2 - 0.0 - - - - - - -
05/06:02pm 25.2 NE 12 15 1013.0 - 0.0 - - - - - - -
05/05:02pm 26.0 NE 12 15 1013.2 - 0.0 - - - - - - -
05/04:30pm 26.1 NE 12 - 1013.2 - 0.0 - - - - - - -
05/02:32pm 26.7 ENE 10 12 1014.3 - 0.0 - - - - - - -
05/01:32pm 27.7 E 10 13 1015.2 - 0.0 - - - - - - -
05/01:30pm 27.3 E 10 - 1015.1 - - - - - - - - -
05/01:02pm 27.3 ESE 11 14 1015.5 - 0.0 - - - - - - -
05/12:32pm 27.1 ESE 12 15 1015.9 - 0.0 - - - - - - -
05/12:02pm 26.9 ESE 14 16 1016.3 - 0.0 - - - - - - -
05/11:32am 26.7 ESE 14 17 1016.6 - 0.0 - - - - - - -
05/11:02am 26.9 ESE 17 20 1016.7 - 0.0 - - - - - - -
05/10:32am 26.4 ESE 17 20 1016.7 - 0.0 - - - - - - -
05/10:30am 26.5 ESE 17 - 1016.6 - 0.0 - - - - - - -
05/10:02am 25.7 ESE 13 16 1016.5 - 0.0 - - - - - - -
05/09:32am 25.0 ESE 15 17 1016.5 - 0.0 - - - - - - -
05/09:02am 24.8 SE 14 17 1016.3 - 0.0 - - - - - - -
05/08:32am 24.0 ESE 13 15 1016.2 - 0.0 - - - - - - -
05/08:02am 23.0 ESE 13 16 1016.0 - 0.0 - - - - - - -
05/07:32am 22.1 SSE 10 12 1015.8 - 0.0 - - - - - - -
05/07:30am 22.1 SSE 10 - 1015.7 - - - - - - - - -
05/07:02am 22.2 SSE 8 10 1015.3 - 0.0 - - - - - - -
05/06:32am 21.6 SE 7 8 1015.2 - 0.0 - - - - - - -
05/06:02am 21.7 SE 6 7 1015.2 - 0.0 - - - - - - -
05/05:32am 21.9 SE 6 7 1015.1 - 0.0 - - - - - - -
05/05:02am 22.2 SE 7 7 1014.8 - 0.0 - - - - - - -
05/04:32am 22.4 ESE 6 7 1014.6 - 0.0 - - - - - - -
05/04:30am 22.4 ESE 7 - 1014.5 - 0.0 - - - - - - -
05/04:02am 23.3 ESE 9 10 1014.6 - 0.0 - - - - - - -
05/03:02am 23.8 ESE 6 7 1014.7 - 0.0 - - - - - - -
05/02:32am 23.8 ESE 5 6 1014.8 - 0.0 - - - - - - -
05/02:02am 23.3 ENE 3 5 1014.7 - 0.0 - - - - - - -
05/01:32am 24.1 NE 6 7 1014.6 - 0.0 - - - - - - -
05/01:30am 24.0 NE 6 - 1014.5 - - - - - - - - -
05/01:02am 24.5 NE 7 9 1014.7 - 0.0 - - - - - - -
05/12:32am 24.3 NE 7 9 1014.7 - 0.0 - - - - - - -
05/12:02am 24.7 NE 8 10 1014.8 - 0.0 - - - - - - -
 
Date/Time
CST
Temp

°C
Wind Pressure Rain
since 9am
mm
Weather Cloud Vis
km
Sea
Height
m
Swell
Dir
 
Speed
knots
Gust
knots
hPa Trend Height
m
Period
s
Dir
04/11:32pm 24.5 ENE 9 11 1015.0 - 0.0 - - - - - - -
04/11:02pm 24.4 ENE 9 11 1015.1 - 0.0 - - - - - - -
04/10:30pm 24.7 ENE 11 - 1014.8 - 0.0 - - - - - - -
04/09:02pm 24.5 NE 12 15 1014.4 - 0.0 - - - - - - -
04/08:32pm 24.6 NE 12 14 1014.1 - 0.0 - - - - - - -
04/08:02pm 24.6 NE 12 14 1013.9 - 0.0 - - - - - - -
04/07:32pm 24.6 NE 12 15 1013.5 - 0.0 - - - - - - -
04/07:30pm 24.7 NE 12 - 1013.4 - - - - - - - - -
04/06:32pm 25.0 NE 14 18 1012.8 - 0.0 - - - - - - -

Other Formats:

Comma delimited format used in spreadsheet applications
http://www.bom.gov.au/fwo/IDD60701/IDD60701.94102.axf

JavaScript Object Notation format (JSON) in row-major order
http://www.bom.gov.au/fwo/IDD60701/IDD60701.94102.json